createdAt,value
2023-02-02T00:02:13.038Z,4.80
2023-02-02T00:04:38.001Z,4.80
2023-02-02T00:07:05.290Z,4.90
2023-02-02T00:09:32.015Z,4.90
2023-02-02T00:11:55.759Z,4.90
2023-02-02T00:14:20.151Z,4.90
2023-02-02T00:16:45.810Z,5.00
2023-02-02T00:19:11.908Z,5.00
2023-02-02T00:21:35.529Z,5.00
2023-02-02T00:24:00.675Z,5.00
2023-02-02T00:26:25.042Z,5.10
2023-02-02T00:28:48.752Z,5.10
2023-02-02T00:31:13.451Z,5.10
2023-02-02T00:33:37.312Z,5.10
2023-02-02T00:36:00.885Z,5.10
2023-02-02T00:38:26.537Z,5.10
2023-02-02T00:40:51.595Z,5.10
2023-02-02T00:43:15.356Z,5.10
2023-02-02T00:45:38.376Z,5.10
2023-02-02T00:48:02.050Z,5.10
2023-02-02T00:50:25.644Z,5.10
2023-02-02T00:52:50.607Z,5.10
2023-02-02T00:55:16.133Z,5.10
2023-02-02T00:57:44.375Z,5.10
2023-02-02T01:00:10.690Z,5.10
2023-02-02T01:02:34.585Z,5.10
2023-02-02T01:04:58.254Z,5.10
2023-02-02T01:07:21.931Z,5.10
2023-02-02T01:09:46.377Z,5.10
2023-02-02T01:12:10.159Z,5.10
2023-02-02T01:14:35.230Z,5.10
2023-02-02T01:16:59.200Z,5.10
2023-02-02T01:19:22.958Z,5.10
2023-02-02T01:21:46.681Z,5.10
2023-02-02T01:24:10.646Z,5.10
2023-02-02T01:26:34.447Z,5.10
2023-02-02T01:28:58.120Z,5.10
2023-02-02T01:31:23.429Z,5.00
2023-02-02T01:33:49.328Z,5.00
2023-02-02T01:36:15.922Z,5.00
2023-02-02T01:38:40.235Z,5.00
2023-02-02T01:41:05.201Z,5.00
2023-02-02T01:43:31.648Z,5.00
2023-02-02T01:45:57.525Z,5.00
2023-02-02T01:48:27.063Z,5.10
2023-02-02T01:50:57.530Z,5.10
2023-02-02T01:53:22.356Z,5.10
2023-02-02T01:55:46.360Z,5.10
2023-02-02T01:58:13.673Z,5.00
2023-02-02T02:00:38.387Z,5.10
2023-02-02T02:03:07.410Z,5.10
2023-02-02T02:05:37.858Z,5.10
2023-02-02T02:08:11.407Z,5.10
2023-02-02T02:10:35.619Z,5.10
2023-02-02T02:13:00.217Z,5.10
2023-02-02T02:15:41.335Z,5.10
2023-02-02T02:18:22.603Z,5.20
2023-02-02T02:21:45.173Z,5.20
2023-02-02T02:25:17.978Z,5.20
2023-02-02T02:28:41.105Z,5.30
2023-02-02T02:32:07.550Z,5.30
2023-02-02T02:34:45.316Z,5.40
2023-02-02T02:37:13.380Z,5.40
2023-02-02T02:39:43.975Z,5.40
2023-02-02T02:42:16.517Z,5.40
2023-02-02T02:44:40.462Z,5.40
2023-02-02T02:47:04.441Z,5.50
2023-02-02T02:49:29.706Z,5.50
2023-02-02T02:51:55.223Z,5.50
2023-02-02T02:54:28.540Z,5.50
2023-02-02T02:57:20.558Z,5.60
2023-02-02T02:59:58.415Z,5.60
2023-02-02T03:02:37.452Z,5.60
2023-02-02T03:05:16.996Z,5.60
2023-02-02T03:07:44.057Z,5.60
2023-02-02T03:10:11.151Z,5.60
2023-02-02T03:12:35.100Z,5.60
2023-02-02T03:14:58.677Z,5.60
2023-02-02T03:17:22.347Z,5.70
2023-02-02T03:19:45.997Z,5.70
2023-02-02T03:22:11.059Z,5.70
2023-02-02T03:24:34.680Z,5.60
2023-02-02T03:26:58.311Z,5.70
2023-02-02T03:29:22.412Z,5.70
2023-02-02T03:31:46.545Z,5.70
2023-02-02T03:34:10.123Z,5.70
2023-02-02T03:36:33.722Z,5.70
2023-02-02T03:38:58.715Z,5.70
2023-02-02T03:41:22.382Z,5.80
2023-02-02T03:43:46.042Z,5.70
2023-02-02T03:46:09.716Z,5.70
2023-02-02T03:48:37.049Z,5.70
2023-02-02T03:51:00.689Z,5.70
2023-02-02T03:53:24.917Z,5.70
2023-02-02T03:55:50.130Z,5.70
2023-02-02T03:58:13.692Z,5.70
2023-02-02T04:00:37.638Z,5.70
2023-02-02T04:03:02.103Z,5.70
2023-02-02T04:05:26.035Z,5.70
2023-02-02T04:07:50.290Z,5.70
2023-02-02T04:10:13.921Z,5.70
2023-02-02T04:12:38.903Z,5.70
2023-02-02T04:15:02.553Z,5.70
2023-02-02T04:17:26.184Z,5.70
2023-02-02T04:19:49.840Z,5.70
2023-02-02T04:22:13.408Z,5.70
2023-02-02T04:24:38.117Z,5.70
2023-02-02T04:27:01.861Z,5.70
2023-02-02T04:29:26.991Z,5.70
2023-02-02T04:31:50.683Z,5.70
2023-02-02T04:34:14.352Z,5.70
2023-02-02T04:36:37.938Z,5.70
2023-02-02T04:39:01.568Z,5.70
2023-02-02T04:41:25.612Z,5.70
2023-02-02T04:43:49.279Z,5.80
2023-02-02T04:46:15.019Z,5.80
2023-02-02T04:48:41.001Z,5.80
2023-02-02T04:51:07.364Z,5.80
2023-02-02T04:53:31.307Z,5.80
2023-02-02T04:55:54.923Z,5.80
2023-02-02T04:58:18.877Z,5.80
2023-02-02T05:00:42.559Z,5.80
2023-02-02T05:03:07.653Z,5.80
2023-02-02T05:05:31.237Z,5.80
2023-02-02T05:07:54.885Z,5.80
2023-02-02T05:10:19.216Z,5.90
2023-02-02T05:12:42.842Z,5.80
2023-02-02T05:15:07.700Z,5.80
2023-02-02T05:17:31.415Z,5.80
2023-02-02T05:19:56.394Z,5.80
2023-02-02T05:22:20.059Z,5.80
2023-02-02T05:24:43.660Z,5.80
2023-02-02T05:27:07.318Z,5.80
2023-02-02T05:29:32.298Z,5.80
2023-02-02T05:31:56.457Z,5.80
2023-02-02T05:34:20.120Z,5.80
2023-02-02T05:36:45.311Z,5.80
2023-02-02T05:39:09.081Z,5.80
2023-02-02T05:41:32.769Z,5.80
2023-02-02T05:43:56.345Z,5.80
2023-02-02T05:46:20.077Z,5.80
2023-02-02T05:48:43.720Z,5.80
2023-02-02T05:51:13.904Z,5.80
2023-02-02T05:53:38.972Z,5.80
2023-02-02T05:56:03.048Z,5.80
2023-02-02T05:58:28.072Z,5.80
2023-02-02T06:00:51.799Z,5.80
2023-02-02T06:03:15.594Z,5.80
2023-02-02T06:05:39.294Z,5.70
2023-02-02T06:08:02.934Z,5.80
2023-02-02T06:10:28.043Z,5.80
2023-02-02T06:12:51.658Z,5.70
2023-02-02T06:15:15.455Z,5.80
2023-02-02T06:17:39.339Z,5.80
2023-02-02T06:20:02.911Z,5.80
2023-02-02T06:22:26.695Z,5.80
2023-02-02T06:24:50.276Z,5.70
2023-02-02T06:27:15.394Z,5.70
2023-02-02T06:29:38.977Z,5.70
2023-02-02T06:32:03.511Z,5.70
2023-02-02T06:34:27.190Z,5.70
2023-02-02T06:36:50.868Z,5.70
2023-02-02T06:39:14.433Z,5.70
2023-02-02T06:41:38.771Z,5.70
2023-02-02T06:44:04.296Z,5.70
2023-02-02T06:46:28.248Z,5.70
2023-02-02T06:48:51.881Z,5.60
2023-02-02T06:51:15.744Z,5.70
2023-02-02T06:53:39.336Z,5.60
2023-02-02T06:56:06.478Z,5.60
2023-02-02T06:58:31.460Z,5.70
2023-02-02T07:00:56.563Z,5.60
2023-02-02T07:03:21.877Z,5.60
2023-02-02T07:05:45.725Z,5.50
2023-02-02T07:08:09.304Z,5.50
2023-02-02T07:11:14.000Z,5.50
2023-02-02T07:13:16.563Z,5.50
2023-02-02T07:15:41.084Z,5.50
2023-02-02T07:18:06.559Z,5.50
2023-02-02T07:20:30.239Z,5.50
2023-02-02T07:22:53.888Z,5.60
2023-02-02T07:25:17.633Z,5.50
2023-02-02T07:27:41.283Z,5.60
2023-02-02T07:30:05.555Z,5.50
2023-02-02T07:32:29.180Z,5.50
2023-02-02T07:34:54.325Z,5.50
2023-02-02T07:37:18.199Z,5.50
2023-02-02T07:39:43.317Z,5.50
2023-02-02T07:42:08.641Z,5.40
2023-02-02T07:44:33.954Z,5.40
2023-02-02T07:46:57.657Z,5.40
2023-02-02T07:49:21.937Z,5.40
2023-02-02T07:51:49.212Z,5.40
2023-02-02T07:54:12.815Z,5.30
2023-02-02T07:56:36.847Z,5.30
2023-02-02T07:59:00.568Z,5.40
2023-02-02T08:01:26.396Z,5.30
2023-02-02T08:03:50.991Z,5.40
2023-02-02T08:06:18.691Z,5.30
2023-02-02T08:08:43.722Z,5.30
2023-02-02T08:11:09.593Z,5.40
2023-02-02T08:13:33.199Z,5.40
2023-02-02T08:15:59.484Z,5.40
2023-02-02T08:18:23.129Z,5.40
2023-02-02T08:20:46.762Z,5.50
2023-02-02T08:23:15.642Z,5.60
2023-02-02T08:25:41.235Z,5.60
2023-02-02T08:28:06.137Z,5.70
2023-02-02T08:30:29.988Z,5.70
2023-02-02T08:32:53.554Z,5.70
2023-02-02T08:35:19.123Z,5.70
2023-02-02T08:37:42.796Z,5.70
2023-02-02T08:40:08.440Z,5.80
2023-02-02T08:42:33.490Z,5.80
2023-02-02T08:46:02.800Z,5.80
2023-02-02T08:47:42.557Z,5.90
2023-02-02T08:50:07.630Z,5.90
2023-02-02T08:52:31.261Z,6.00
2023-02-02T08:54:54.857Z,6.00
2023-02-02T08:57:18.563Z,6.20
2023-02-02T08:59:43.559Z,6.30
2023-02-02T09:02:07.297Z,6.40
2023-02-02T09:04:30.988Z,6.50
2023-02-02T09:06:54.585Z,6.50
2023-02-02T09:09:18.297Z,6.50
2023-02-02T09:11:43.023Z,6.50
2023-02-02T09:14:07.402Z,6.60
2023-02-02T09:16:32.508Z,6.60
2023-02-02T09:18:56.421Z,6.70
2023-02-02T09:21:21.061Z,6.60
2023-02-02T09:23:46.648Z,6.70
2023-02-02T09:26:15.644Z,6.70
2023-02-02T09:28:39.717Z,6.80
2023-02-02T09:31:03.818Z,6.80
2023-02-02T09:33:28.931Z,6.80
2023-02-02T09:35:52.543Z,6.90
2023-02-02T09:38:16.125Z,7.10
2023-02-02T09:40:41.846Z,7.10
2023-02-02T09:43:23.462Z,7.30
2023-02-02T09:45:54.380Z,7.30
2023-02-02T09:48:30.169Z,7.50
2023-02-02T09:50:56.882Z,7.60
2023-02-02T09:53:30.996Z,7.70
2023-02-02T09:55:58.823Z,7.50
2023-02-02T09:58:27.189Z,7.40
2023-02-02T10:00:58.712Z,7.30
2023-02-02T10:03:26.913Z,7.40
2023-02-02T10:05:58.863Z,7.30
2023-02-02T10:08:35.397Z,7.20
2023-02-02T10:11:01.830Z,7.20
2023-02-02T10:13:34.108Z,7.20
2023-02-02T10:16:05.880Z,7.20
2023-02-02T10:18:44.707Z,7.20
2023-02-02T10:21:26.085Z,7.40
2023-02-02T10:23:50.088Z,7.40
2023-02-02T10:26:21.125Z,7.70
2023-02-02T10:28:59.356Z,7.70
2023-02-02T10:31:43.370Z,7.80
2023-02-02T10:34:17.826Z,8.00
2023-02-02T10:37:15.524Z,8.20
2023-02-02T10:39:52.912Z,8.50
2023-02-02T10:42:29.823Z,8.50
2023-02-02T10:44:57.924Z,8.60
2023-02-02T10:47:27.644Z,8.40
2023-02-02T10:50:12.025Z,8.30
2023-02-02T10:52:37.296Z,8.20
2023-02-02T10:55:04.777Z,8.10
2023-02-02T10:58:03.946Z,8.10
2023-02-02T11:00:36.254Z,8.10
2023-02-02T11:03:04.791Z,8.00
2023-02-02T11:05:48.093Z,7.90
2023-02-02T11:08:19.797Z,7.90
2023-02-02T11:10:45.471Z,7.90
2023-02-02T11:13:16.339Z,7.90
2023-02-02T11:15:40.076Z,8.00
2023-02-02T11:18:17.007Z,8.00
2023-02-02T11:20:40.703Z,7.90
2023-02-02T11:23:07.581Z,8.00
2023-02-02T11:25:36.174Z,7.90
2023-02-02T11:28:00.174Z,7.80
2023-02-02T11:30:29.905Z,7.80
2023-02-02T11:32:53.568Z,7.90
2023-02-02T11:35:22.283Z,8.10
2023-02-02T11:38:01.228Z,8.10
2023-02-02T11:40:34.446Z,8.20
2023-02-02T11:43:00.813Z,8.30
2023-02-02T11:45:37.209Z,8.30
2023-02-02T11:48:07.014Z,8.30
2023-02-02T11:50:30.930Z,8.30
2023-02-02T11:52:55.494Z,8.20
2023-02-02T11:55:28.044Z,8.20
2023-02-02T11:58:33.657Z,8.20
2023-02-02T12:01:01.982Z,7.90
2023-02-02T12:03:30.653Z,7.90
2023-02-02T12:05:54.794Z,7.70
2023-02-02T12:08:18.981Z,7.60
2023-02-02T12:10:49.643Z,7.50
2023-02-02T12:13:29.035Z,7.40
2023-02-02T12:16:04.387Z,7.20
2023-02-02T12:18:44.979Z,7.00
2023-02-02T12:21:15.313Z,6.90
2023-02-02T12:24:02.702Z,6.80
2023-02-02T12:26:30.723Z,6.70
2023-02-02T12:29:22.795Z,6.60
2023-02-02T12:32:13.044Z,6.60
2023-02-02T12:34:51.748Z,6.70
2023-02-02T12:37:30.036Z,6.70
2023-02-02T12:40:11.161Z,6.70
2023-02-02T12:42:52.873Z,6.70
2023-02-02T12:45:59.470Z,6.70
2023-02-02T12:48:42.130Z,6.70
2023-02-02T12:51:29.569Z,6.70
2023-02-02T12:54:32.186Z,6.70
2023-02-02T12:57:05.186Z,6.80
2023-02-02T12:59:53.008Z,6.90
2023-02-02T13:02:29.416Z,6.90
2023-02-02T13:05:24.257Z,6.90
2023-02-02T13:07:51.299Z,6.90
2023-02-02T13:10:24.914Z,6.90
2023-02-02T13:12:55.153Z,7.00
2023-02-02T13:15:24.179Z,7.00
2023-02-02T13:17:53.726Z,7.10
2023-02-02T13:20:39.623Z,7.10
2023-02-02T13:23:11.290Z,7.20
2023-02-02T13:25:42.962Z,7.30
2023-02-02T13:28:08.155Z,7.40
2023-02-02T13:30:35.377Z,7.50
2023-02-02T13:33:08.091Z,7.50
2023-02-02T13:35:40.666Z,7.60
2023-02-02T13:38:15.301Z,7.80
2023-02-02T13:40:41.121Z,7.80
2023-02-02T13:43:23.911Z,7.80
2023-02-02T13:46:02.301Z,7.80
2023-02-02T13:48:38.770Z,7.80
2023-02-02T13:51:36.672Z,7.90
2023-02-02T13:54:50.630Z,7.70
2023-02-02T13:57:32.172Z,7.60
2023-02-02T14:00:04.951Z,7.50
2023-02-02T14:02:36.993Z,7.40
2023-02-02T14:05:04.802Z,7.20
2023-02-02T14:07:41.738Z,7.20
2023-02-02T14:10:06.898Z,7.00
2023-02-02T14:12:33.837Z,6.90
2023-02-02T14:14:57.532Z,6.90
2023-02-02T14:17:55.889Z,6.90
2023-02-02T14:20:42.555Z,6.70
2023-02-02T14:23:52.544Z,6.70
2023-02-02T14:26:22.270Z,6.60
2023-02-02T14:28:50.887Z,6.60
2023-02-02T14:31:54.662Z,6.60
2023-02-02T14:34:39.438Z,6.50
2023-02-02T14:37:44.342Z,6.50
2023-02-02T14:40:39.387Z,6.40
2023-02-02T14:43:35.465Z,6.30
2023-02-02T14:46:39.723Z,6.30
2023-02-02T14:49:24.046Z,6.20
2023-02-02T14:51:56.116Z,6.20
2023-02-02T14:54:26.457Z,6.10
2023-02-02T14:56:56.728Z,6.10
2023-02-02T14:59:24.132Z,6.00
2023-02-02T15:01:59.111Z,6.00
2023-02-02T15:04:28.241Z,5.90
2023-02-02T15:06:53.929Z,5.90
2023-02-02T15:09:40.039Z,5.80
2023-02-02T15:12:31.467Z,5.80
2023-02-02T15:15:05.501Z,5.70
2023-02-02T15:17:36.125Z,5.70
2023-02-02T15:20:11.778Z,5.60
2023-02-02T15:22:44.094Z,5.60
2023-02-02T15:25:20.261Z,5.50
2023-02-02T15:27:57.004Z,5.50
2023-02-02T15:30:21.291Z,5.40
2023-02-02T15:32:45.146Z,5.40
2023-02-02T15:35:18.654Z,5.30
2023-02-02T15:37:53.252Z,5.30
2023-02-02T15:40:22.835Z,5.30
2023-02-02T15:42:54.945Z,5.20
2023-02-02T15:45:39.918Z,5.10
2023-02-02T15:48:15.599Z,5.10
2023-02-02T15:50:46.398Z,5.00
2023-02-02T15:53:20.775Z,4.90
2023-02-02T15:55:44.453Z,4.80
2023-02-02T15:58:28.839Z,4.80
2023-02-02T16:01:05.439Z,4.70
2023-02-02T16:03:39.681Z,4.60
2023-02-02T16:06:06.159Z,4.50
2023-02-02T16:08:34.359Z,4.50
2023-02-02T16:11:08.171Z,4.40
2023-02-02T16:13:33.729Z,4.40
2023-02-02T16:15:59.935Z,4.30
2023-02-02T16:18:23.792Z,4.30
2023-02-02T16:20:47.997Z,4.20
2023-02-02T16:23:17.929Z,4.10
2023-02-02T16:25:49.817Z,4.00
2023-02-02T16:28:15.189Z,4.00
2023-02-02T16:30:41.407Z,3.90
2023-02-02T16:33:37.006Z,3.90
2023-02-02T16:36:00.674Z,3.80
2023-02-02T16:38:27.764Z,3.80
2023-02-02T16:41:03.242Z,3.80
2023-02-02T16:43:30.896Z,3.70
2023-02-02T16:45:58.309Z,3.60
2023-02-02T16:48:35.246Z,3.60
2023-02-02T16:51:26.840Z,3.50
2023-02-02T16:54:00.775Z,3.50
2023-02-02T16:56:31.531Z,3.50
2023-02-02T16:58:58.135Z,3.40
2023-02-02T17:01:23.338Z,3.30
2023-02-02T17:03:53.233Z,3.30
2023-02-02T17:06:17.001Z,3.20
2023-02-02T17:08:41.886Z,3.10
2023-02-02T17:11:12.699Z,3.10
2023-02-02T17:13:41.148Z,3.00
2023-02-02T17:16:06.314Z,3.00
2023-02-02T17:18:31.366Z,2.90
2023-02-02T17:20:58.133Z,2.90
2023-02-02T17:23:22.089Z,2.80
2023-02-02T17:25:47.946Z,2.70
2023-02-02T17:28:15.038Z,2.70
2023-02-02T17:30:40.990Z,2.60
2023-02-02T17:33:05.088Z,2.60
2023-02-02T17:35:43.511Z,2.50
2023-02-02T17:38:07.310Z,2.50
2023-02-02T17:40:31.009Z,2.40
2023-02-02T17:42:55.475Z,2.30
2023-02-02T17:45:22.610Z,2.30
2023-02-02T17:47:46.512Z,2.20
2023-02-02T17:50:11.816Z,2.20
2023-02-02T17:52:38.466Z,2.20
2023-02-02T17:55:02.445Z,2.10
2023-02-02T17:57:26.127Z,2.00
2023-02-02T17:59:49.710Z,2.00
2023-02-02T18:02:16.949Z,1.90
2023-02-02T18:04:40.514Z,1.90
2023-02-02T18:07:04.191Z,1.90
2023-02-02T18:09:33.882Z,1.80
2023-02-02T18:11:57.582Z,1.80
2023-02-02T18:14:21.197Z,1.80
2023-02-02T18:16:44.855Z,1.70
2023-02-02T18:19:08.429Z,1.70
2023-02-02T18:21:32.770Z,1.70
2023-02-02T18:23:56.984Z,1.60
2023-02-02T18:26:24.311Z,1.50
2023-02-02T18:28:49.006Z,1.50
2023-02-02T18:31:15.026Z,1.50
2023-02-02T18:33:40.739Z,1.50
2023-02-02T18:36:10.759Z,1.40
2023-02-02T18:38:34.358Z,1.40
2023-02-02T18:40:58.899Z,1.30
2023-02-02T18:43:23.949Z,1.30
2023-02-02T18:45:47.713Z,1.30
2023-02-02T18:48:11.323Z,1.30
2023-02-02T18:50:34.909Z,1.20
2023-02-02T18:52:59.120Z,1.10
2023-02-02T18:55:22.814Z,1.10
2023-02-02T18:57:46.477Z,1.10
2023-02-02T19:00:13.911Z,1.00
2023-02-02T19:02:37.524Z,1.00
2023-02-02T19:05:18.514Z,1.00
2023-02-02T19:07:57.151Z,0.90
2023-02-02T19:10:21.830Z,0.90
2023-02-02T19:12:53.807Z,0.90
2023-02-02T19:15:19.159Z,0.90
2023-02-02T19:17:42.821Z,0.80
2023-02-02T19:20:22.397Z,0.80
2023-02-02T19:22:46.080Z,0.80
2023-02-02T19:25:13.787Z,0.70
2023-02-02T19:27:37.431Z,0.70
2023-02-02T19:30:01.564Z,0.60
2023-02-02T19:32:32.321Z,0.60
2023-02-02T19:34:58.662Z,0.60
2023-02-02T19:37:25.802Z,0.60
2023-02-02T19:39:49.477Z,0.60
2023-02-02T19:42:13.425Z,0.60
2023-02-02T19:44:38.952Z,0.60
2023-02-02T19:47:02.897Z,0.60
2023-02-02T19:49:33.156Z,0.50
2023-02-02T19:51:58.438Z,0.50
2023-02-02T19:54:33.921Z,0.50
2023-02-02T19:57:00.738Z,0.40
2023-02-02T19:59:27.213Z,0.50
2023-02-02T20:01:51.738Z,0.50
2023-02-02T20:04:16.773Z,0.50
2023-02-02T20:06:56.795Z,0.50
2023-02-02T20:09:22.625Z,0.50
2023-02-02T20:11:51.436Z,0.50
2023-02-02T20:14:30.359Z,0.50
2023-02-02T20:16:59.629Z,0.50
2023-02-02T20:19:26.278Z,0.50
2023-02-02T20:21:53.505Z,0.60
2023-02-02T20:24:20.834Z,0.50
2023-02-02T20:26:44.470Z,0.60
2023-02-02T20:29:18.960Z,0.60
2023-02-02T20:31:42.680Z,0.60
2023-02-02T20:34:24.562Z,0.60
2023-02-02T20:36:50.910Z,0.60
2023-02-02T20:39:34.392Z,0.60
2023-02-02T20:41:58.910Z,0.60
2023-02-02T20:44:22.860Z,0.70
2023-02-02T20:46:46.566Z,0.70
2023-02-02T20:49:10.233Z,0.70
2023-02-02T20:51:33.891Z,0.60
2023-02-02T20:53:59.083Z,0.60
2023-02-02T20:56:22.838Z,0.70
2023-02-02T20:58:46.472Z,0.70
2023-02-02T21:01:10.102Z,0.70
2023-02-02T21:03:33.982Z,0.70
2023-02-02T21:05:57.653Z,0.70
2023-02-02T21:08:21.273Z,0.70
2023-02-02T21:10:46.507Z,0.70
2023-02-02T21:13:10.116Z,0.70
2023-02-02T21:15:33.809Z,0.70
2023-02-02T21:17:57.377Z,0.70
2023-02-02T21:20:21.631Z,0.60
2023-02-02T21:22:45.297Z,0.60
2023-02-02T21:25:10.530Z,0.60
2023-02-02T21:27:35.782Z,0.60
2023-02-02T21:29:59.440Z,0.60
2023-02-02T21:32:23.061Z,0.60
2023-02-02T21:34:46.795Z,0.60
2023-02-02T21:37:15.152Z,0.60
2023-02-02T21:39:39.288Z,0.60
2023-02-02T21:42:15.046Z,0.60
2023-02-02T21:44:43.127Z,0.60
2023-02-02T21:47:29.692Z,0.60
2023-02-02T21:49:53.775Z,0.60
2023-02-02T21:52:19.506Z,0.60
2023-02-02T21:54:43.379Z,0.60
2023-02-02T21:57:17.130Z,0.60
2023-02-02T21:59:42.355Z,0.60
2023-02-02T22:02:41.334Z,0.60
2023-02-02T22:05:18.858Z,0.60
2023-02-02T22:07:47.537Z,0.60
2023-02-02T22:10:29.213Z,0.60
2023-02-02T22:12:52.921Z,0.60
2023-02-02T22:15:24.432Z,0.60
2023-02-02T22:17:49.269Z,0.70
2023-02-02T22:20:34.313Z,0.60
2023-02-02T22:22:57.981Z,0.70
2023-02-02T22:25:33.153Z,0.70
2023-02-02T22:27:59.681Z,0.70
2023-02-02T22:30:30.655Z,0.80
2023-02-02T22:32:54.973Z,0.80
2023-02-02T22:35:18.735Z,0.80
2023-02-02T22:37:42.405Z,0.80
2023-02-02T22:40:06.716Z,0.90
2023-02-02T22:42:30.414Z,0.90
2023-02-02T22:44:53.963Z,0.90
2023-02-02T22:47:19.040Z,0.90
2023-02-02T22:49:42.609Z,0.90
2023-02-02T22:52:06.618Z,1.00
2023-02-02T22:54:30.998Z,1.00
2023-02-02T22:56:54.619Z,1.00
2023-02-02T22:59:18.207Z,1.10
2023-02-02T23:01:41.903Z,1.10
2023-02-02T23:04:06.970Z,1.10
2023-02-02T23:06:30.648Z,1.20
2023-02-02T23:08:54.273Z,1.20
2023-02-02T23:11:18.207Z,1.20
2023-02-02T23:13:41.797Z,1.30
2023-02-02T23:16:06.144Z,1.30
2023-02-02T23:18:29.714Z,1.30
2023-02-02T23:20:54.795Z,1.40
2023-02-02T23:23:18.460Z,1.40
2023-02-02T23:25:42.196Z,1.40
2023-02-02T23:28:06.253Z,1.40
2023-02-02T23:30:29.970Z,1.50
2023-02-02T23:32:53.943Z,1.50
2023-02-02T23:35:17.991Z,1.50
2023-02-02T23:37:43.031Z,1.60
2023-02-02T23:40:08.481Z,1.60
2023-02-02T23:42:32.164Z,1.60
2023-02-02T23:44:55.810Z,1.60
2023-02-02T23:47:20.105Z,1.70
2023-02-02T23:49:43.975Z,1.70
2023-02-02T23:52:07.957Z,1.70
2023-02-02T23:54:33.650Z,1.80
2023-02-02T23:56:58.354Z,1.80
2023-02-02T23:59:22.016Z,1.80
